createdAt,value
2023-01-20T08:03:21.486Z,13.13
2023-01-20T08:05:48.363Z,13.50
2023-01-20T08:08:15.108Z,12.45
2023-01-20T08:10:41.831Z,11.23
2023-01-20T08:13:08.573Z,12.10
2023-01-20T08:15:35.330Z,10.38
2023-01-20T08:18:04.427Z,10.70
2023-01-20T08:20:31.192Z,11.00
2023-01-20T08:22:57.962Z,11.05
2023-01-20T08:25:24.658Z,10.55
2023-01-20T08:27:51.376Z,9.93
2023-01-20T08:30:18.503Z,10.02
2023-01-20T08:32:45.230Z,11.57
2023-01-20T08:35:12.060Z,12.38
2023-01-20T08:37:38.881Z,12.60
2023-01-20T08:40:09.022Z,13.45
2023-01-20T08:42:39.147Z,12.30
2023-01-20T08:45:08.225Z,12.30
2023-01-20T08:47:39.401Z,10.75
2023-01-20T08:50:08.043Z,10.40
2023-01-20T08:52:34.737Z,9.88
2023-01-20T08:55:01.557Z,9.75
2023-01-20T08:57:28.470Z,10.93
2023-01-20T08:59:55.670Z,11.40
2023-01-20T09:02:24.537Z,10.85
2023-01-20T09:04:52.220Z,12.60
2023-01-20T09:07:19.767Z,12.07
2023-01-20T09:09:47.734Z,13.98
2023-01-20T09:12:14.521Z,18.48
2023-01-20T09:14:41.302Z,16.50
2023-01-20T09:17:07.990Z,15.55
2023-01-20T09:19:34.795Z,16.40
2023-01-20T09:22:03.428Z,13.32
2023-01-20T09:24:30.163Z,11.88
2023-01-20T09:26:57.189Z,11.43
2023-01-20T09:29:27.228Z,11.05
2023-01-20T09:32:01.817Z,11.95
2023-01-20T09:34:30.485Z,11.90
2023-01-20T09:37:19.285Z,13.23
2023-01-20T09:40:05.691Z,12.55
2023-01-20T09:43:15.880Z,13.95
2023-01-20T09:45:59.885Z,16.00
2023-01-20T09:49:26.122Z,14.63
2023-01-20T09:52:24.255Z,11.90
2023-01-20T09:55:04.586Z,11.98
2023-01-20T09:57:36.434Z,11.32
2023-01-20T10:00:17.077Z,12.10
2023-01-20T10:02:51.059Z,13.52
2023-01-20T10:05:25.678Z,14.77
2023-01-20T10:07:56.580Z,15.23
2023-01-20T10:10:48.945Z,14.93
2023-01-20T10:13:26.701Z,18.80
2023-01-20T10:15:55.794Z,17.08
2023-01-20T10:18:33.659Z,15.82
2023-01-20T10:21:17.671Z,17.30
2023-01-20T10:23:58.303Z,17.92
2023-01-20T10:26:39.536Z,16.92
2023-01-20T10:29:11.711Z,13.70
2023-01-20T10:31:45.038Z,12.98
2023-01-20T10:34:19.520Z,14.05
2023-01-20T10:37:00.560Z,14.00
2023-01-20T10:39:56.134Z,13.73
2023-01-20T10:42:24.758Z,13.60
2023-01-20T10:44:52.789Z,13.20
2023-01-20T10:47:41.168Z,12.90
2023-01-20T10:50:23.292Z,13.80
2023-01-20T10:53:16.192Z,13.52
2023-01-20T10:56:06.686Z,13.77
2023-01-20T10:58:38.920Z,14.05
2023-01-20T11:01:09.297Z,13.30
2023-01-20T11:03:40.752Z,14.60
2023-01-20T11:06:13.800Z,13.68
2023-01-20T11:08:41.205Z,14.93
2023-01-20T11:11:21.187Z,13.27
2023-01-20T11:13:51.526Z,13.98
2023-01-20T11:16:31.947Z,13.48
2023-01-20T11:19:00.005Z,14.88
2023-01-20T11:21:29.933Z,14.88
2023-01-20T11:23:57.834Z,13.30
2023-01-20T11:26:28.290Z,14.02
2023-01-20T11:28:58.252Z,11.57
2023-01-20T11:31:45.130Z,13.00
2023-01-20T11:34:27.599Z,12.32
2023-01-20T11:37:06.328Z,12.77
2023-01-20T11:39:54.089Z,13.93
2023-01-20T11:42:24.961Z,14.07
2023-01-20T11:45:01.137Z,13.45
2023-01-20T11:47:35.175Z,12.93
2023-01-20T11:50:04.751Z,12.95
2023-01-20T11:52:33.270Z,11.63
2023-01-20T11:55:15.044Z,12.55
2023-01-20T11:58:16.114Z,12.00
2023-01-20T12:00:44.151Z,11.85
2023-01-20T12:03:10.898Z,10.80
2023-01-20T12:05:54.855Z,12.88
2023-01-20T12:08:31.169Z,13.40
2023-01-20T12:11:02.759Z,12.82
2023-01-20T12:13:56.072Z,11.85
2023-01-20T12:16:26.441Z,12.45
2023-01-20T12:19:02.091Z,12.15
2023-01-20T12:21:39.881Z,12.63
2023-01-20T12:24:42.064Z,11.73
2023-01-20T12:27:20.617Z,13.48
2023-01-20T12:29:51.529Z,11.93
2023-01-20T12:32:18.379Z,12.63
2023-01-20T12:34:45.348Z,11.75
2023-01-20T12:37:25.602Z,12.70
2023-01-20T12:40:14.703Z,12.23
2023-01-20T12:43:14.925Z,12.13
2023-01-20T12:46:00.595Z,12.38
2023-01-20T12:48:33.182Z,13.20
2023-01-20T12:51:09.798Z,13.38
2023-01-20T12:54:07.581Z,12.98
2023-01-20T12:57:01.110Z,12.02
2023-01-20T12:59:59.492Z,11.68
2023-01-20T13:02:50.012Z,14.18
2023-01-20T13:05:29.239Z,12.98
2023-01-20T13:08:11.450Z,13.70
2023-01-20T13:11:02.838Z,12.68
2023-01-20T13:13:55.893Z,12.30
2023-01-20T13:16:44.889Z,13.00
2023-01-20T13:19:40.003Z,13.35
2023-01-20T13:22:22.208Z,13.00
2023-01-20T13:24:52.311Z,12.50
2023-01-20T13:27:32.750Z,13.90
2023-01-20T13:30:03.064Z,15.45
2023-01-20T13:32:40.147Z,14.38
2023-01-20T13:35:24.904Z,16.50
2023-01-20T13:37:57.758Z,15.00
2023-01-20T13:43:56.099Z,13.75
2023-01-20T13:46:57.352Z,14.82
2023-01-20T13:49:27.593Z,15.73
2023-01-20T13:51:54.405Z,15.10
2023-01-20T13:54:35.450Z,16.05
2023-01-20T13:57:23.083Z,17.75
2023-01-20T13:59:50.832Z,16.17
2023-01-20T14:02:18.851Z,15.63
2023-01-20T14:04:46.315Z,14.10
2023-01-20T14:07:26.879Z,14.75
2023-01-20T14:09:56.154Z,13.00
2023-01-20T14:12:22.958Z,13.73
2023-01-20T14:14:50.345Z,14.13
2023-01-20T14:17:20.702Z,14.32
2023-01-20T14:19:53.576Z,14.43
2023-01-20T14:22:26.847Z,14.55
2023-01-20T14:24:57.398Z,13.73
2023-01-20T14:27:36.823Z,15.90
2023-01-20T14:30:21.958Z,15.60
2023-01-20T14:32:49.665Z,16.60
2023-01-20T14:35:28.972Z,16.70
2023-01-20T14:37:57.344Z,17.52
2023-01-20T14:40:35.950Z,17.45
2023-01-20T14:43:07.887Z,18.38
2023-01-20T14:45:36.999Z,18.77
2023-01-20T14:48:05.863Z,16.42
2023-01-20T14:50:33.667Z,16.67
2023-01-20T14:53:00.621Z,18.40
2023-01-20T14:55:45.755Z,18.50
2023-01-20T14:58:16.502Z,18.13
2023-01-20T15:01:01.544Z,17.25
2023-01-20T15:03:32.412Z,17.08
2023-01-20T15:06:09.432Z,15.32
2023-01-20T15:08:40.838Z,15.38
2023-01-20T15:11:18.506Z,16.58
2023-01-20T15:14:05.520Z,15.98
2023-01-20T15:16:46.708Z,16.65
2023-01-20T15:19:16.440Z,17.08
2023-01-20T15:22:19.649Z,16.15
2023-01-20T15:24:50.814Z,16.17
2023-01-20T15:27:27.283Z,17.17
2023-01-20T15:30:14.468Z,17.63
2023-01-20T15:32:41.394Z,16.30
2023-01-20T15:35:13.294Z,17.23
2023-01-20T15:37:44.049Z,16.20
2023-01-20T15:40:20.891Z,16.17
2023-01-20T15:43:00.273Z,16.95
2023-01-20T15:45:27.208Z,18.08
2023-01-20T15:47:54.205Z,16.88
2023-01-20T15:50:23.135Z,16.67
2023-01-20T15:52:52.352Z,18.98
2023-01-20T15:55:22.533Z,17.33
2023-01-20T15:57:54.650Z,17.45
2023-01-20T16:00:24.630Z,16.33
2023-01-20T16:02:51.744Z,17.98
2023-01-20T16:05:18.784Z,21.05
2023-01-20T16:07:51.612Z,19.63
2023-01-20T16:10:35.336Z,19.77
2023-01-20T16:13:02.281Z,20.63
2023-01-20T16:15:32.025Z,21.25
2023-01-20T16:17:58.903Z,22.40
2023-01-20T16:20:29.473Z,24.25
2023-01-20T16:22:58.472Z,22.83
2023-01-20T16:25:26.613Z,22.75
2023-01-20T16:27:53.443Z,27.50
2023-01-20T16:30:21.970Z,25.95
2023-01-20T16:32:49.031Z,29.00
2023-01-20T16:35:17.777Z,25.10
2023-01-20T16:37:47.470Z,22.67
2023-01-20T16:40:17.496Z,24.58
2023-01-20T16:42:48.028Z,23.40
2023-01-20T16:45:28.080Z,24.40
2023-01-20T16:47:57.530Z,24.23
2023-01-20T16:50:27.968Z,25.35
2023-01-20T16:52:55.305Z,25.00
2023-01-20T16:55:24.018Z,27.88
2023-01-20T16:57:54.463Z,31.48
2023-01-20T17:00:24.203Z,33.28
